createdAt,value
2018-10-12T00:00:53.347Z,99392.77
2018-10-12T00:03:21.077Z,99389.24
2018-10-12T00:05:48.619Z,99389.82
2018-10-12T00:08:16.162Z,99393.38
2018-10-12T00:54:23.644Z,99402.56
2018-10-12T00:56:51.165Z,99401.01
2018-10-12T00:59:18.733Z,99410.15
2018-10-12T01:01:46.337Z,99415.33
2018-10-12T01:04:13.858Z,99416.88
2018-10-12T01:06:41.558Z,99423.47
2018-10-12T01:09:09.069Z,99415.96
2018-10-12T01:11:36.597Z,99412.84
2018-10-12T01:14:04.142Z,99413.20
2018-10-12T01:16:31.679Z,99412.13
2018-10-12T01:18:59.373Z,99411.27
2018-10-12T01:21:26.938Z,99407.23
2018-10-12T01:23:54.568Z,99405.81
2018-10-12T01:26:22.139Z,99402.77
2018-10-12T01:28:49.716Z,99405.65
2018-10-12T01:31:17.248Z,99411.76
2018-10-12T01:33:44.780Z,99428.55
2018-10-12T01:36:12.580Z,99425.95
2018-10-12T01:38:40.204Z,99429.16
2018-10-12T01:41:07.718Z,99428.45
2018-10-12T01:43:35.236Z,99420.20
2018-10-12T01:46:02.805Z,99420.53
2018-10-12T01:48:30.359Z,99413.11
2018-10-12T01:50:57.935Z,99424.11
2018-10-12T01:53:25.497Z,99419.38
2018-10-12T01:55:53.026Z,99420.07
2018-10-12T01:58:20.578Z,99428.16
2018-10-12T02:00:48.104Z,99425.39
2018-10-12T02:03:15.673Z,99423.88
2018-10-12T02:05:43.216Z,99417.58
2018-10-12T02:08:10.769Z,99422.83
2018-10-12T02:10:38.368Z,99423.98
2018-10-12T02:13:05.927Z,99417.25
2018-10-12T02:15:33.496Z,99424.73
2018-10-12T02:18:01.039Z,99424.11
2018-10-12T02:20:28.662Z,99429.55
2018-10-12T02:22:56.184Z,99426.91
2018-10-12T02:25:23.750Z,99437.41
2018-10-12T02:27:51.265Z,99439.73
2018-10-12T02:30:18.833Z,99435.66
2018-10-12T02:32:46.349Z,99441.02
2018-10-12T02:35:13.917Z,99448.02
2018-10-12T02:37:41.482Z,99455.83
2018-10-12T02:40:09.039Z,99452.77
2018-10-12T02:42:36.566Z,99459.16
2018-10-12T02:45:04.114Z,99465.42
2018-10-12T02:47:31.632Z,99459.58
2018-10-12T02:49:59.199Z,99459.66
2018-10-12T02:52:26.704Z,99457.02
2018-10-12T02:54:54.305Z,99458.98
2018-10-12T02:57:21.884Z,99470.19
2018-10-12T02:59:49.441Z,99473.64
2018-10-12T03:02:16.978Z,99467.53
2018-10-12T03:04:44.536Z,99473.61
2018-10-12T03:07:12.058Z,99482.23
2018-10-12T03:09:39.685Z,99491.88
2018-10-12T03:12:07.394Z,99495.48
2018-10-12T03:14:34.946Z,99507.48
2018-10-12T03:17:02.480Z,99500.59
2018-10-12T03:19:30.041Z,99508.41
2018-10-12T03:21:57.609Z,99507.67
2018-10-12T03:24:25.114Z,99509.47
2018-10-12T03:26:52.787Z,99512.00
2018-10-12T03:29:20.316Z,99521.01
2018-10-12T03:31:47.858Z,99522.77
2018-10-12T03:34:15.436Z,99531.27
2018-10-12T03:36:42.965Z,99527.43
2018-10-12T03:39:10.527Z,99532.84
2018-10-12T03:41:38.059Z,99537.77
2018-10-12T03:44:05.643Z,99530.70
2018-10-12T03:46:33.185Z,99538.64
2018-10-12T03:49:00.708Z,99536.62
2018-10-12T03:51:28.290Z,99536.64
2018-10-12T03:53:56.142Z,99538.22
2018-10-12T03:56:23.693Z,99540.20
2018-10-12T03:58:51.221Z,99541.27
2018-10-12T04:01:18.820Z,99540.11
2018-10-12T04:03:46.365Z,99548.55
2018-10-12T04:06:13.945Z,99542.35
2018-10-12T04:08:41.464Z,99551.88
2018-10-12T04:11:09.024Z,99558.75
2018-10-12T04:13:36.565Z,99557.82
2018-10-12T04:16:04.155Z,99555.88
2018-10-12T04:18:31.676Z,99558.56
2018-10-12T04:20:59.208Z,99568.92
2018-10-12T04:23:26.763Z,99571.83
2018-10-12T04:25:54.555Z,99577.01
2018-10-12T04:28:22.107Z,99579.14
2018-10-12T04:30:49.639Z,99580.40
2018-10-12T04:33:17.178Z,99588.02
2018-10-12T04:35:44.704Z,99586.35
2018-10-12T04:38:12.305Z,99586.22
2018-10-12T04:40:39.894Z,99589.05
2018-10-12T04:43:07.485Z,99588.34
2018-10-12T04:45:35.013Z,99582.34
2018-10-12T04:48:02.577Z,99574.82
2018-10-12T04:50:30.101Z,99565.92
2018-10-12T04:52:57.665Z,99577.84
2018-10-12T04:55:25.197Z,99585.34
2018-10-12T04:57:52.752Z,99587.86
2018-10-12T05:00:20.269Z,99601.58
2018-10-12T05:02:47.820Z,99616.28
2018-10-12T05:05:15.376Z,99618.66
2018-10-12T05:07:42.992Z,99610.91
2018-10-12T05:10:10.503Z,99616.70
2018-10-12T05:12:38.015Z,99621.86
2018-10-12T05:15:05.584Z,99634.28
2018-10-12T05:17:33.119Z,99636.36
2018-10-12T05:20:00.678Z,99636.45
2018-10-12T05:22:28.199Z,99638.11
2018-10-12T05:24:55.750Z,99635.44
2018-10-12T05:27:23.301Z,99637.12
2018-10-12T05:29:50.852Z,99646.20
2018-10-12T05:32:18.456Z,99657.08
2018-10-12T05:34:46.147Z,99663.06
2018-10-12T05:37:13.673Z,99670.84
2018-10-12T05:39:41.231Z,99674.95
2018-10-12T05:42:08.748Z,99676.21
2018-10-12T05:44:36.303Z,99687.08
2018-10-12T05:47:03.921Z,99683.20
2018-10-12T05:49:41.248Z,99695.37
2018-10-12T05:52:08.798Z,99702.09
2018-10-12T05:54:36.368Z,99704.39
2018-10-12T05:57:03.889Z,99707.87
2018-10-12T05:59:31.460Z,99711.28
2018-10-12T06:01:58.974Z,99713.92
2018-10-12T06:04:26.525Z,99723.52
2018-10-12T06:06:54.197Z,99723.38
2018-10-12T06:09:21.786Z,99718.42
2018-10-12T06:11:49.353Z,99729.18
2018-10-12T06:14:16.899Z,99720.71
2018-10-12T06:16:44.423Z,99721.88
2018-10-12T06:19:11.974Z,99729.61
2018-10-12T06:21:39.729Z,99729.73
2018-10-12T06:24:07.171Z,99743.98
2018-10-12T06:26:34.716Z,99741.81
2018-10-12T06:29:02.312Z,99741.77
2018-10-12T06:31:29.829Z,99744.98
2018-10-12T06:33:57.524Z,99752.48
2018-10-12T06:36:25.054Z,99755.19
2018-10-12T06:38:52.651Z,99759.54
2018-10-12T06:41:20.209Z,99752.02
2018-10-12T06:43:47.791Z,99760.45
2018-10-12T06:46:15.376Z,99758.49
2018-10-12T06:48:43.193Z,99769.14
2018-10-12T06:51:10.712Z,99775.38
2018-10-12T06:53:38.251Z,99773.55
2018-10-12T06:56:05.806Z,99780.06
2018-10-12T06:58:33.336Z,99774.44
2018-10-12T07:01:00.900Z,99780.58
2018-10-12T07:03:28.410Z,99781.28
2018-10-12T07:05:55.995Z,99774.73
2018-10-12T07:08:23.513Z,99783.09
2018-10-12T07:10:51.114Z,99786.09
2018-10-12T07:13:18.641Z,99795.19
2018-10-12T07:15:46.158Z,99799.08
2018-10-12T07:18:13.718Z,99809.05
2018-10-12T07:20:41.277Z,99804.25
2018-10-12T07:23:08.807Z,99808.53
2018-10-12T07:25:36.410Z,99819.14
2018-10-12T07:28:03.942Z,99820.06
2018-10-12T07:30:31.517Z,99831.50
2018-10-12T07:32:59.054Z,99828.94
2018-10-12T07:35:26.614Z,99835.24
2018-10-12T07:37:54.187Z,99835.09
2018-10-12T07:40:21.918Z,99843.99
2018-10-12T07:42:49.879Z,99835.52
2018-10-12T07:45:17.567Z,99838.39
2018-10-12T07:47:45.502Z,99842.00
2018-10-12T07:50:14.222Z,99842.52
2018-10-12T07:52:43.102Z,99841.78
2018-10-12T07:55:11.087Z,99844.55
2018-10-12T07:57:40.096Z,99851.69
2018-10-12T08:00:08.361Z,99858.95
2018-10-12T08:02:37.115Z,99852.55
2018-10-12T08:05:05.960Z,99852.00
2018-10-12T08:07:34.427Z,99855.44
2018-10-12T08:10:02.455Z,99849.36
2018-10-12T08:12:30.289Z,99845.48
2018-10-12T08:14:58.432Z,99851.28
2018-10-12T08:17:26.485Z,99854.56
2018-10-12T08:19:55.234Z,99856.25
2018-10-12T08:22:23.868Z,99864.67
2018-10-12T08:24:52.523Z,99858.84
2018-10-12T08:27:24.074Z,99863.55
2018-10-12T08:29:52.107Z,99863.92
2018-10-12T08:32:21.149Z,99867.98
2018-10-12T08:34:49.794Z,99873.12
2018-10-12T08:37:17.718Z,99882.81
2018-10-12T08:39:45.544Z,99887.16
2018-10-12T08:42:13.434Z,99889.51
2018-10-12T08:44:41.421Z,99885.73
2018-10-12T08:47:09.493Z,99896.33
2018-10-12T08:49:37.637Z,99897.05
2018-10-12T08:52:05.741Z,99902.95
2018-10-12T08:54:33.422Z,99904.02
2018-10-12T08:57:01.412Z,99900.66
2018-10-12T08:59:30.080Z,99911.36
2018-10-12T09:01:58.190Z,99913.30
2018-10-12T09:04:27.850Z,99907.05
2018-10-12T09:06:56.764Z,99912.08
2018-10-12T09:09:24.715Z,99912.53
2018-10-12T09:11:53.149Z,99920.05
2018-10-12T09:14:21.044Z,99922.56
2018-10-12T09:16:48.773Z,99922.83
2018-10-12T09:19:16.307Z,99920.98
2018-10-12T09:21:44.326Z,99921.27
2018-10-12T09:24:12.394Z,99927.14
2018-10-12T09:26:40.311Z,99926.05
2018-10-12T09:29:08.044Z,99928.69
2018-10-12T09:31:36.055Z,99922.98
2018-10-12T09:34:04.195Z,99922.06
2018-10-12T09:36:32.180Z,99919.62
2018-10-12T09:39:00.057Z,99923.61
2018-10-12T09:41:30.033Z,99925.03
2018-10-12T09:43:58.839Z,99924.17
2018-10-12T09:46:29.204Z,99918.77
2018-10-12T09:48:57.768Z,99926.52
2018-10-12T09:51:26.831Z,99923.58
2018-10-12T09:53:54.573Z,99924.44
2018-10-12T09:56:22.213Z,99938.80
2018-10-12T09:58:49.815Z,99934.02
2018-10-12T10:01:32.411Z,99922.22
2018-10-12T10:03:59.948Z,99930.20
2018-10-12T10:06:28.941Z,99922.25
2018-10-12T10:08:57.664Z,99923.18
2018-10-12T10:11:27.088Z,99915.65
2018-10-12T10:13:54.907Z,99922.20
2018-10-12T10:16:23.513Z,99913.95
2018-10-12T10:18:52.044Z,99903.48
2018-10-12T10:21:21.047Z,99915.70
2018-10-12T10:23:48.965Z,99909.14
2018-10-12T10:26:17.820Z,99905.41
2018-10-12T10:28:45.829Z,99922.36
2018-10-12T10:31:13.776Z,99915.92
2018-10-12T10:33:41.808Z,99912.13
2018-10-12T10:36:09.841Z,99912.47
2018-10-12T10:38:38.841Z,99906.88
2018-10-12T10:41:06.889Z,99897.98
2018-10-12T10:43:34.700Z,99910.05
2018-10-12T10:46:02.285Z,99897.13
2018-10-12T10:48:30.173Z,99899.21
2018-10-12T10:50:58.059Z,99891.72
2018-10-12T10:53:26.460Z,99890.69
2018-10-12T10:55:55.094Z,99878.34
2018-10-12T10:58:23.995Z,99877.34
2018-10-12T11:00:54.778Z,99871.22
2018-10-12T11:03:25.127Z,99880.31
2018-10-12T11:05:52.918Z,99877.33
2018-10-12T11:08:21.183Z,99886.07
2018-10-12T11:10:49.041Z,99883.14
2018-10-12T11:13:18.487Z,99893.00
2018-10-12T11:15:47.317Z,99880.83
2018-10-12T11:18:16.133Z,99879.87
2018-10-12T11:20:43.986Z,99882.66
2018-10-12T11:23:11.974Z,99897.28
2018-10-12T11:25:39.835Z,99887.72
2018-10-12T11:28:08.022Z,99880.44
2018-10-12T11:30:35.875Z,99875.45
2018-10-12T11:33:03.758Z,99878.13
2018-10-12T11:35:31.305Z,99876.48
2018-10-12T11:37:58.845Z,99869.12
2018-10-12T11:40:26.435Z,99872.97
2018-10-12T11:43:14.932Z,99869.59
2018-10-12T11:45:42.843Z,99870.56
2018-10-12T11:48:10.585Z,99861.11
2018-10-12T11:50:38.282Z,99856.20
2018-10-12T11:53:06.223Z,99857.54
2018-10-12T11:55:33.846Z,99864.48
2018-10-12T11:58:01.667Z,99870.07
2018-10-12T12:00:29.294Z,99860.39
2018-10-12T12:02:57.067Z,99868.21
2018-10-12T12:05:25.133Z,99860.68
2018-10-12T12:07:53.120Z,99870.53
2018-10-12T12:10:20.776Z,99863.58
2018-10-12T12:12:48.409Z,99860.58
2018-10-12T12:15:16.180Z,99857.03
2018-10-12T12:17:44.301Z,99858.92
2018-10-12T12:20:12.217Z,99862.14
2018-10-12T12:22:40.309Z,99854.57
2018-10-12T12:25:08.013Z,99849.58
2018-10-12T12:27:35.609Z,99842.64
2018-10-12T12:30:03.168Z,99840.17
2018-10-12T12:32:30.746Z,99851.33
2018-10-12T12:34:58.477Z,99847.41
2018-10-12T12:37:25.957Z,99846.00
2018-10-12T12:39:53.510Z,99843.61
2018-10-12T12:42:21.112Z,99846.77
2018-10-12T12:44:48.747Z,99851.27
2018-10-12T12:47:16.362Z,99851.75
2018-10-12T12:49:43.940Z,99852.08
2018-10-12T12:52:11.507Z,99857.03
2018-10-12T12:54:39.481Z,99852.77
2018-10-12T12:57:07.157Z,99854.03
2018-10-12T12:59:34.818Z,99851.96
2018-10-12T13:02:02.385Z,99852.99
2018-10-12T13:04:29.957Z,99850.23
2018-10-12T13:06:57.544Z,99847.26
2018-10-12T13:09:25.236Z,99847.89
2018-10-12T13:11:52.778Z,99857.09
2018-10-12T13:14:20.339Z,99853.12
2018-10-12T13:16:47.923Z,99853.15
2018-10-12T13:19:15.476Z,99850.86
2018-10-12T13:21:43.121Z,99848.22
2018-10-12T13:24:10.764Z,99858.64
2018-10-12T13:26:38.327Z,99858.84
2018-10-12T13:29:06.085Z,99860.39
2018-10-12T13:31:33.664Z,99865.14
2018-10-12T13:34:01.292Z,99851.73
2018-10-12T13:36:28.900Z,99856.32
2018-10-12T13:38:56.708Z,99856.14
2018-10-12T13:41:24.383Z,99863.87
2018-10-12T13:43:52.030Z,99868.16
2018-10-12T13:46:19.584Z,99872.78
2018-10-12T13:48:47.151Z,99861.27
2018-10-12T13:51:14.674Z,99863.36
2018-10-12T13:53:42.380Z,99868.36
2018-10-12T13:56:09.930Z,99862.72
2018-10-12T13:58:37.593Z,99864.70
2018-10-12T14:01:06.509Z,99870.38
2018-10-12T14:03:34.046Z,99872.87
2018-10-12T14:06:01.865Z,99874.84
2018-10-12T14:08:29.477Z,99871.81
2018-10-12T14:10:57.038Z,99869.83
2018-10-12T14:13:24.651Z,99872.67
2018-10-12T14:15:52.460Z,99875.06
2018-10-12T14:18:20.199Z,99872.55
2018-10-12T14:20:47.896Z,99875.19
2018-10-12T14:23:15.621Z,99877.69
2018-10-12T14:25:43.143Z,99875.39
2018-10-12T14:28:10.709Z,99875.30
2018-10-12T14:30:38.395Z,99871.11
2018-10-12T14:33:06.184Z,99870.24
2018-10-12T14:35:33.780Z,99869.92
2018-10-12T14:38:01.593Z,99870.80
2018-10-12T14:40:28.913Z,99874.66
2018-10-12T14:42:56.442Z,99877.88
2018-10-12T14:45:24.075Z,99870.35
2018-10-12T14:47:51.605Z,99868.49
2018-10-12T14:50:19.140Z,99874.56
2018-10-12T14:52:46.798Z,99869.10
2018-10-12T14:55:14.546Z,99879.26
2018-10-12T14:57:42.072Z,99867.53
2018-10-12T15:00:09.769Z,99862.20
2018-10-12T15:02:37.301Z,99870.25
2018-10-12T15:05:04.883Z,99866.80
2018-10-12T15:07:32.423Z,99866.29
2018-10-12T15:09:59.992Z,99863.34
2018-10-12T15:12:27.656Z,99863.96
2018-10-12T15:15:13.044Z,99867.53
2018-10-12T15:17:40.769Z,99862.70
2018-10-12T15:20:08.288Z,99867.95
2018-10-12T15:22:35.858Z,99868.80
2018-10-12T15:25:03.447Z,99868.16
2018-10-12T15:27:31.126Z,99869.63
2018-10-12T15:29:58.671Z,99870.64
2018-10-12T15:32:26.418Z,99873.95
2018-10-12T15:34:54.059Z,99872.66
2018-10-12T15:37:21.655Z,99868.89
2018-10-12T15:39:49.138Z,99875.15
2018-10-12T15:42:16.680Z,99877.17
2018-10-12T15:44:44.422Z,99874.91
2018-10-12T15:47:12.093Z,99874.36
2018-10-12T15:49:39.624Z,99877.81
2018-10-12T15:52:07.485Z,99871.25
2018-10-12T15:54:35.005Z,99874.34
2018-10-12T15:57:02.634Z,99879.53
2018-10-12T15:59:30.095Z,99868.84
2018-10-12T16:01:57.838Z,99876.71
2018-10-12T16:04:25.407Z,99874.39
2018-10-12T16:06:52.941Z,99878.94
2018-10-12T16:09:20.498Z,99871.39
2018-10-12T16:11:48.016Z,99877.88
2018-10-12T16:14:15.655Z,99882.09
2018-10-12T16:16:43.243Z,99878.98
2018-10-12T16:19:10.774Z,99877.23
2018-10-12T16:21:38.365Z,99875.62
2018-10-12T16:24:05.897Z,99877.70
2018-10-12T16:26:33.488Z,99879.87
2018-10-12T16:29:01.126Z,99879.05
2018-10-12T16:31:28.655Z,99885.63
2018-10-12T16:33:56.216Z,99891.27
2018-10-12T16:36:23.865Z,99892.50
2018-10-12T16:38:51.370Z,99888.58
2018-10-12T16:41:18.927Z,99888.70
2018-10-12T16:43:46.463Z,99890.66
2018-10-12T16:46:14.073Z,99896.26
2018-10-12T16:48:41.689Z,99903.56
2018-10-12T16:51:09.226Z,99903.80
2018-10-12T16:53:36.802Z,99907.66
2018-10-12T16:56:04.359Z,99903.90
2018-10-12T16:58:31.937Z,99898.84
2018-10-12T17:00:59.504Z,99905.08
2018-10-12T17:03:27.089Z,99907.55
2018-10-12T17:05:54.671Z,99902.05
2018-10-12T17:08:22.261Z,99909.52
2018-10-12T17:10:49.855Z,99908.28
2018-10-12T17:13:17.381Z,99906.80
2018-10-12T17:15:44.942Z,99912.73
2018-10-12T17:18:12.496Z,99910.98
2018-10-12T17:20:40.142Z,99918.85
2018-10-12T17:23:07.668Z,99920.95
2018-10-12T17:25:35.400Z,99927.00
2018-10-12T17:28:02.918Z,99926.89
2018-10-12T17:30:30.510Z,99927.28
2018-10-12T17:32:59.528Z,99930.25
2018-10-12T17:35:27.061Z,99934.75
2018-10-12T17:37:54.845Z,99934.00
2018-10-12T17:40:22.537Z,99941.95
2018-10-12T17:42:50.123Z,99943.28
2018-10-12T17:45:17.832Z,99948.94
2018-10-12T17:47:45.540Z,99947.74
2018-10-12T17:50:13.123Z,99952.64
2018-10-12T17:52:40.634Z,99948.59
2018-10-12T17:55:08.217Z,99947.77
2018-10-12T17:57:35.766Z,99938.80
2018-10-12T18:00:03.630Z,99941.45
2018-10-12T18:02:31.193Z,99940.80
2018-10-12T18:04:58.736Z,99942.67
2018-10-12T18:07:26.294Z,99955.55
2018-10-12T18:09:53.864Z,99959.19
2018-10-12T18:12:21.430Z,99955.22
2018-10-12T18:14:48.956Z,99953.63
2018-10-12T18:17:16.521Z,99954.38
2018-10-12T18:19:44.175Z,99951.38
2018-10-12T18:22:11.775Z,99950.63
2018-10-12T18:24:39.318Z,99951.33
2018-10-12T18:27:06.925Z,99942.85
2018-10-12T18:29:34.616Z,99951.86
2018-10-12T18:32:02.154Z,99953.27
2018-10-12T18:34:29.730Z,99944.55
2018-10-12T18:36:57.408Z,99946.62
2018-10-12T18:39:25.027Z,99951.27
2018-10-12T18:41:52.633Z,99956.73
2018-10-12T18:44:20.171Z,99950.14
2018-10-12T18:46:47.756Z,99953.01
2018-10-12T18:49:15.314Z,99955.91
2018-10-12T18:51:42.888Z,99963.78
2018-10-12T18:54:10.442Z,99965.52
2018-10-12T18:56:38.099Z,99969.13
2018-10-12T18:59:05.632Z,99964.44
2018-10-12T19:01:33.179Z,99973.09
2018-10-12T19:04:00.755Z,99967.80
2018-10-12T19:06:28.414Z,99968.25
2018-10-12T19:08:55.934Z,99973.42
2018-10-12T19:11:23.472Z,99974.02
2018-10-12T19:13:51.270Z,99978.13
2018-10-12T19:16:18.834Z,99974.30
2018-10-12T19:18:46.344Z,99981.01
2018-10-12T19:21:13.921Z,99983.98
2018-10-12T19:23:41.467Z,99983.43
2018-10-12T19:26:09.023Z,99983.94
2018-10-12T19:28:36.592Z,99987.23
2018-10-12T19:31:04.189Z,99983.59
2018-10-12T19:33:31.791Z,99990.03
2018-10-12T19:35:59.560Z,99993.52
2018-10-12T19:38:27.153Z,99990.45
2018-10-12T19:40:54.658Z,99987.22
2018-10-12T19:43:22.193Z,99981.27
2018-10-12T19:45:49.741Z,99985.77
2018-10-12T19:48:17.306Z,99985.50
2018-10-12T19:50:44.841Z,99995.03
2018-10-12T19:53:12.356Z,99990.23
2018-10-12T19:55:39.910Z,99995.44
2018-10-12T19:58:07.482Z,100004.07
2018-10-12T20:00:35.089Z,100003.62
2018-10-12T20:03:02.606Z,100005.36
2018-10-12T20:05:30.174Z,100008.14
2018-10-12T20:07:57.709Z,100009.94
2018-10-12T20:10:25.338Z,100006.47
2018-10-12T20:12:52.859Z,100005.88
2018-10-12T20:15:20.498Z,100008.76
2018-10-12T20:17:48.132Z,100009.83
2018-10-12T20:20:15.728Z,100013.92
2018-10-12T20:22:43.239Z,100014.97
2018-10-12T20:25:11.006Z,100017.81
2018-10-12T20:27:38.841Z,100021.23
2018-10-12T20:30:06.963Z,100017.42
2018-10-12T20:32:34.748Z,100015.69
2018-10-12T20:35:02.313Z,100018.92
2018-10-12T20:37:30.089Z,100018.09
2018-10-12T20:39:57.625Z,100017.58
2018-10-12T20:42:25.213Z,100020.61
2018-10-12T20:44:52.740Z,100018.98
2018-10-12T20:47:20.274Z,100025.75
2018-10-12T20:49:47.867Z,100018.78
2018-10-12T20:52:15.428Z,100022.91
2018-10-12T21:12:07.260Z,100018.62
2018-10-12T21:14:35.262Z,100015.19
2018-10-12T21:17:03.036Z,100016.41
2018-10-12T21:19:30.624Z,100021.30
2018-10-12T21:21:58.131Z,100014.83
2018-10-12T21:33:03.892Z,100017.80
2018-10-12T21:38:24.016Z,100016.51
2018-10-12T21:40:51.745Z,100017.83
2018-10-12T21:43:19.548Z,100019.05
2018-10-12T21:45:47.137Z,100014.53
2018-10-12T21:48:14.677Z,100019.01
2018-10-12T21:50:42.303Z,100018.78
2018-10-12T21:53:09.843Z,100015.42
2018-10-12T21:55:37.418Z,100013.61
2018-10-12T21:58:05.228Z,100025.64
2018-10-12T22:00:32.779Z,100013.67
2018-10-12T22:03:00.375Z,100015.29
2018-10-12T22:05:27.911Z,100019.64
2018-10-12T22:07:55.543Z,100016.44
2018-10-12T22:10:23.757Z,100015.16
2018-10-12T22:12:51.461Z,100018.03
2018-10-12T22:15:19.035Z,100015.12
2018-10-12T22:17:46.706Z,100015.12
2018-10-12T22:23:26.380Z,100015.25
2018-10-12T22:25:54.098Z,100019.67
2018-10-12T22:51:22.865Z,99992.44
2018-10-12T22:53:50.420Z,99992.51
2018-10-12T22:56:18.151Z,99984.66
2018-10-12T23:27:31.829Z,99980.57
2018-10-12T23:29:59.398Z,99981.73
2018-10-12T23:32:26.986Z,99978.03
2018-10-12T23:34:54.556Z,99979.52
2018-10-12T23:37:22.230Z,99969.33
2018-10-12T23:39:50.092Z,99969.82
2018-10-12T23:42:17.651Z,99965.38
2018-10-12T23:44:45.261Z,99974.28
2018-10-12T23:47:12.829Z,99968.24
2018-10-12T23:49:40.575Z,99968.14
2018-10-12T23:52:08.129Z,99969.42
2018-10-12T23:54:35.658Z,99967.48
2018-10-12T23:57:03.232Z,99971.44
2018-10-12T23:59:31.005Z,99971.88
